Dalton, Georgia
Current Conditions -  °F | °C
As of 3:15 PM on Sunday 25 Jan 2015 (Local Time) from KDNN Reporting Station
Clear Clear  
Wind Chill: 55°   Ceiling: Unl
Heat Index: 55°   Visibility: 10mi
Dew Point: 34°   Wind: 10mph
Humidity: 44%   Direction: 160°SSE
Pressure: 29.73"   Gusts: 18mph
Location:  34.76°N, 84.97°W
Report Text: KDNN 252015Z AUTO 16009G16KT 10SM CLR 13/01 A2973 RMK AO2
Loading
Personal Weather Stations






























Interactive Weather Map New forecast layout! Learn more

10-Day Weather Forecast

Advertisements
Track Severe Weather on mobile